createdAt,value
2022-12-03T00:00:39.467Z,6.70
2022-12-03T00:03:37.108Z,7.60
2022-12-03T00:06:34.985Z,7.10
2022-12-03T00:09:32.498Z,8.00
2022-12-03T00:12:29.977Z,7.90
2022-12-03T00:15:27.434Z,8.70
2022-12-03T00:18:24.951Z,7.60
2022-12-03T00:21:24.629Z,7.50
2022-12-03T00:24:22.358Z,8.50
2022-12-03T00:27:19.822Z,8.70
2022-12-03T00:30:17.281Z,9.10
2022-12-03T00:33:14.762Z,9.40
2022-12-03T00:36:12.225Z,9.00
2022-12-03T00:39:09.890Z,9.80
2022-12-03T00:42:07.401Z,9.60
2022-12-03T00:45:04.837Z,9.30
2022-12-03T00:48:02.284Z,6.20
2022-12-03T00:50:59.748Z,8.50
2022-12-03T00:53:57.218Z,7.90
2022-12-03T00:56:54.689Z,8.00
2022-12-03T00:59:52.146Z,8.60
2022-12-03T01:02:49.645Z,8.30
2022-12-03T01:05:47.120Z,8.50
2022-12-03T01:08:44.619Z,7.70
2022-12-03T01:11:42.094Z,7.70
2022-12-03T01:14:39.523Z,7.90
2022-12-03T01:17:36.981Z,7.80
2022-12-03T01:20:36.366Z,8.00
2022-12-03T01:23:33.879Z,8.90
2022-12-03T01:26:31.315Z,8.50
2022-12-03T01:29:28.788Z,7.70
2022-12-03T01:32:26.232Z,7.40
2022-12-03T01:35:23.689Z,8.30
2022-12-03T01:38:21.179Z,7.20
2022-12-03T01:41:18.617Z,7.70
2022-12-03T01:44:16.096Z,8.50
2022-12-03T01:47:13.545Z,7.50
2022-12-03T01:50:11.044Z,7.70
2022-12-03T01:53:08.508Z,6.90
2022-12-03T01:56:05.963Z,7.00
2022-12-03T01:59:03.434Z,8.00
2022-12-03T02:02:00.985Z,7.40
2022-12-03T02:04:58.516Z,6.80
2022-12-03T02:07:56.043Z,7.30
2022-12-03T02:10:53.527Z,6.60
2022-12-03T02:13:50.999Z,6.50
2022-12-03T02:16:48.453Z,7.00
2022-12-03T02:19:45.917Z,7.50
2022-12-03T02:22:43.372Z,7.80
2022-12-03T02:25:40.834Z,7.30
2022-12-03T02:28:38.715Z,7.60
2022-12-03T02:31:36.281Z,7.10
2022-12-03T02:34:33.890Z,7.70
2022-12-03T02:37:31.351Z,7.10
2022-12-03T02:40:28.857Z,7.50
2022-12-03T02:43:26.342Z,7.80
2022-12-03T02:46:24.126Z,7.80
2022-12-03T02:49:21.660Z,6.70
2022-12-03T02:52:19.106Z,7.00
2022-12-03T02:55:16.590Z,7.70
2022-12-03T02:58:14.031Z,7.70
2022-12-03T03:01:11.513Z,8.50
2022-12-03T03:04:09.035Z,7.10
2022-12-03T03:07:06.472Z,7.80
2022-12-03T03:10:03.932Z,6.70
2022-12-03T03:13:01.396Z,6.80
2022-12-03T03:15:58.915Z,7.80
2022-12-03T03:18:56.421Z,8.10
2022-12-03T03:21:53.882Z,6.80
2022-12-03T03:24:51.636Z,6.10
2022-12-03T03:27:49.318Z,7.60
2022-12-03T03:30:46.815Z,6.60
2022-12-03T03:33:44.301Z,6.80
2022-12-03T03:36:41.743Z,7.10
2022-12-03T03:39:39.215Z,6.80
2022-12-03T03:42:36.661Z,7.70
2022-12-03T03:45:34.199Z,6.10
2022-12-03T03:48:31.709Z,6.80
2022-12-03T03:51:29.181Z,8.50
2022-12-03T03:54:26.624Z,7.00
2022-12-03T03:57:24.088Z,6.80
2022-12-03T04:00:21.568Z,7.50
2022-12-03T04:03:19.010Z,6.60
2022-12-03T04:06:16.447Z,6.60
2022-12-03T04:09:13.894Z,6.80
2022-12-03T04:12:29.022Z,7.50
2022-12-03T04:15:26.457Z,7.60
2022-12-03T04:18:41.274Z,8.00
2022-12-03T04:21:56.383Z,6.90
2022-12-03T04:25:13.814Z,7.30
2022-12-03T04:28:28.930Z,7.40
2022-12-03T04:31:43.811Z,6.80
2022-12-03T04:34:59.117Z,7.90
2022-12-03T04:37:56.552Z,7.00
2022-12-03T04:41:10.697Z,6.80
2022-12-03T04:44:25.583Z,6.80
2022-12-03T04:47:23.039Z,6.40
2022-12-03T04:50:20.496Z,6.70
2022-12-03T04:53:17.948Z,7.90
2022-12-03T04:56:15.407Z,7.70
2022-12-03T04:59:16.283Z,7.20
2022-12-03T05:02:14.261Z,8.50
2022-12-03T05:05:11.969Z,8.10
2022-12-03T05:08:09.545Z,7.90
2022-12-03T05:11:07.071Z,7.70
2022-12-03T05:14:04.558Z,8.30
2022-12-03T05:17:02.124Z,9.00
2022-12-03T05:20:17.375Z,7.40
2022-12-03T05:23:14.866Z,7.60
2022-12-03T05:26:12.338Z,7.30
2022-12-03T05:29:09.801Z,7.80
2022-12-03T05:32:07.292Z,7.40
2022-12-03T05:35:04.804Z,8.30
2022-12-03T05:38:02.248Z,8.70
2022-12-03T05:40:59.700Z,7.90
2022-12-03T05:43:57.156Z,7.10
2022-12-03T05:46:54.650Z,7.50
2022-12-03T05:49:52.116Z,8.00
2022-12-03T05:52:49.636Z,7.90
2022-12-03T05:55:47.077Z,8.00
2022-12-03T05:58:44.544Z,7.90
2022-12-03T06:01:41.995Z,7.00
2022-12-03T06:04:39.447Z,6.80
2022-12-03T06:07:36.959Z,8.70
2022-12-03T06:10:34.546Z,7.40
2022-12-03T06:13:32.114Z,8.00
2022-12-03T06:16:29.744Z,8.00
2022-12-03T06:19:27.228Z,7.80
2022-12-03T06:22:24.696Z,8.70
2022-12-03T06:25:22.149Z,8.40
2022-12-03T06:28:19.607Z,7.80
2022-12-03T06:31:17.135Z,9.40
2022-12-03T06:34:14.655Z,7.90
2022-12-03T06:37:12.139Z,9.00
2022-12-03T06:40:09.574Z,8.80
2022-12-03T06:43:07.045Z,8.40
2022-12-03T06:46:04.656Z,9.00
2022-12-03T06:49:02.203Z,9.90
2022-12-03T06:51:59.679Z,8.60
2022-12-03T06:54:57.557Z,8.70
2022-12-03T06:57:55.043Z,9.70
2022-12-03T07:00:52.503Z,8.50
2022-12-03T07:03:49.951Z,8.40
2022-12-03T07:06:47.393Z,8.30
2022-12-03T07:09:44.857Z,8.50
2022-12-03T07:12:42.340Z,8.00
2022-12-03T07:15:39.803Z,8.60
2022-12-03T07:18:37.280Z,8.40
2022-12-03T07:21:34.718Z,8.90
2022-12-03T07:24:32.187Z,8.30
2022-12-03T07:27:29.660Z,9.00
2022-12-03T07:30:27.876Z,8.40
2022-12-03T07:33:25.378Z,9.70
2022-12-03T07:36:22.823Z,9.40
2022-12-03T07:39:20.261Z,10.00
2022-12-03T07:42:17.705Z,10.60
2022-12-03T07:45:15.178Z,11.40
2022-12-03T07:48:12.674Z,12.30
2022-12-03T07:51:14.193Z,11.90
2022-12-03T07:54:12.798Z,11.20
2022-12-03T07:57:10.259Z,11.20
2022-12-03T08:00:07.691Z,11.70
2022-12-03T08:03:05.169Z,11.60
2022-12-03T08:06:03.018Z,12.80
2022-12-03T08:09:00.471Z,11.50
2022-12-03T08:11:57.922Z,11.00
2022-12-03T08:14:55.521Z,10.80
2022-12-03T08:17:53.073Z,12.30
2022-12-03T08:20:50.551Z,12.70
2022-12-03T08:23:48.318Z,12.10
2022-12-03T08:26:45.740Z,11.80
2022-12-03T08:29:43.211Z,12.20
2022-12-03T08:32:40.689Z,12.40
2022-12-03T08:35:38.187Z,12.10
2022-12-03T08:38:35.647Z,12.80
2022-12-03T08:41:50.602Z,13.50
2022-12-03T08:44:48.054Z,13.80
2022-12-03T08:47:45.489Z,12.40
2022-12-03T08:50:42.957Z,13.50
2022-12-03T08:53:40.419Z,13.90
2022-12-03T08:56:37.882Z,13.00
2022-12-03T08:59:35.339Z,11.60
2022-12-03T09:02:33.473Z,12.90
2022-12-03T09:05:30.989Z,13.00
2022-12-03T09:08:28.451Z,12.60
2022-12-03T09:11:25.903Z,13.70
2022-12-03T09:14:23.806Z,14.10
2022-12-03T09:17:21.319Z,11.60
2022-12-03T09:20:18.796Z,12.70
2022-12-03T09:23:16.241Z,12.80
2022-12-03T09:26:13.829Z,12.80
2022-12-03T09:29:12.645Z,12.50
2022-12-03T09:32:13.772Z,13.70
2022-12-03T09:35:15.715Z,14.30
2022-12-03T09:38:13.181Z,13.20
2022-12-03T09:41:10.655Z,12.50
2022-12-03T09:44:15.844Z,14.00
2022-12-03T09:47:15.242Z,14.00
2022-12-03T09:50:13.042Z,11.70
2022-12-03T09:53:10.650Z,12.40
2022-12-03T09:56:08.190Z,13.80
2022-12-03T09:59:05.742Z,13.20
2022-12-03T10:02:03.767Z,14.10
2022-12-03T10:05:01.512Z,13.90
2022-12-03T10:07:59.704Z,15.20
2022-12-03T10:10:57.578Z,14.10
2022-12-03T10:13:55.170Z,14.70
2022-12-03T10:16:52.838Z,13.60
2022-12-03T10:19:50.465Z,13.00
2022-12-03T10:22:48.954Z,12.60
2022-12-03T10:25:46.574Z,13.90
2022-12-03T10:28:44.221Z,12.70
2022-12-03T10:31:41.715Z,14.00
2022-12-03T10:34:39.188Z,14.20
2022-12-03T10:37:36.644Z,14.10
2022-12-03T10:40:34.607Z,12.30
2022-12-03T10:43:32.074Z,12.10
2022-12-03T10:46:29.686Z,12.80
2022-12-03T10:49:27.249Z,12.50
2022-12-03T10:52:26.172Z,11.10
2022-12-03T10:55:23.839Z,11.50
2022-12-03T10:58:21.301Z,12.90
2022-12-03T11:01:19.193Z,12.50
2022-12-03T11:04:16.692Z,12.20
2022-12-03T11:07:14.144Z,12.60
2022-12-03T11:10:11.668Z,12.30
2022-12-03T11:13:09.128Z,12.50
2022-12-03T11:16:08.261Z,13.30
2022-12-03T11:19:05.779Z,13.90
2022-12-03T11:22:03.274Z,12.60
2022-12-03T11:25:00.685Z,12.10
2022-12-03T11:27:58.157Z,13.00
2022-12-03T11:30:56.701Z,13.30
2022-12-03T11:33:54.283Z,12.60
2022-12-03T11:37:01.489Z,12.90
2022-12-03T11:39:59.757Z,13.10
2022-12-03T11:42:57.253Z,14.30
2022-12-03T11:45:58.342Z,13.90
2022-12-03T11:48:58.491Z,11.90
2022-12-03T11:51:55.943Z,14.50
2022-12-03T11:54:53.411Z,12.30
2022-12-03T11:57:50.867Z,12.70
2022-12-03T12:00:48.312Z,13.30
2022-12-03T12:03:45.883Z,12.90
2022-12-03T12:06:43.397Z,12.70
2022-12-03T12:09:40.894Z,13.80
2022-12-03T12:12:38.357Z,11.50
2022-12-03T12:15:35.852Z,13.30
2022-12-03T12:18:33.320Z,13.80
2022-12-03T12:21:30.807Z,13.40
2022-12-03T12:24:28.266Z,13.40
2022-12-03T12:27:25.725Z,13.00
2022-12-03T12:30:23.384Z,13.00
2022-12-03T12:33:23.110Z,14.10
2022-12-03T12:36:20.684Z,14.80
2022-12-03T12:39:18.136Z,15.10
2022-12-03T12:42:15.747Z,14.70
2022-12-03T12:45:13.195Z,14.20
2022-12-03T12:48:10.668Z,13.70
2022-12-03T12:51:08.166Z,13.40
2022-12-03T12:54:05.620Z,13.20
2022-12-03T12:57:03.147Z,14.20
2022-12-03T13:00:00.585Z,15.60
2022-12-03T13:02:58.118Z,15.20
2022-12-03T13:05:55.638Z,16.20
2022-12-03T13:08:53.150Z,17.10
2022-12-03T13:11:50.603Z,15.90
2022-12-03T13:14:48.066Z,15.50
2022-12-03T13:17:45.505Z,16.30
2022-12-03T13:20:42.955Z,15.30
2022-12-03T13:23:40.428Z,16.30
2022-12-03T13:26:39.288Z,15.10
2022-12-03T13:29:37.015Z,16.80
2022-12-03T13:32:34.503Z,16.30
2022-12-03T13:35:35.361Z,16.40
2022-12-03T13:38:32.801Z,16.70
2022-12-03T13:41:47.259Z,16.90
2022-12-03T13:44:44.736Z,17.00
2022-12-03T13:47:42.260Z,17.80
2022-12-03T13:50:39.679Z,17.60
2022-12-03T13:53:37.098Z,19.10
2022-12-03T13:56:36.363Z,18.00
2022-12-03T13:59:33.836Z,17.40
2022-12-03T14:02:31.629Z,18.90
2022-12-03T14:05:29.125Z,17.90
2022-12-03T14:08:26.607Z,19.60
2022-12-03T14:11:41.735Z,17.10
2022-12-03T14:14:39.212Z,19.00
2022-12-03T14:17:36.700Z,18.80
2022-12-03T14:20:35.121Z,19.70
2022-12-03T14:23:32.635Z,18.30
2022-12-03T14:26:30.110Z,19.10
2022-12-03T14:29:27.565Z,19.40
2022-12-03T14:32:25.200Z,20.40
2022-12-03T14:35:22.724Z,18.10
2022-12-03T14:38:20.183Z,21.20
2022-12-03T14:41:35.392Z,21.10
2022-12-03T14:44:32.874Z,20.30
2022-12-03T14:47:30.338Z,20.50
2022-12-03T14:50:27.809Z,22.10
2022-12-03T14:53:27.410Z,22.70
2022-12-03T14:56:25.146Z,22.70
2022-12-03T14:59:27.471Z,20.50
2022-12-03T15:02:25.430Z,22.30
2022-12-03T15:05:28.627Z,21.90
2022-12-03T15:08:26.822Z,23.40
2022-12-03T15:11:24.338Z,22.80
2022-12-03T15:14:21.823Z,22.30
2022-12-03T15:17:27.803Z,23.50
2022-12-03T15:20:28.739Z,22.00
2022-12-03T15:23:26.181Z,23.20
2022-12-03T15:26:23.645Z,22.20
2022-12-03T15:29:21.164Z,22.00
2022-12-03T15:32:18.614Z,25.00
2022-12-03T15:35:18.641Z,23.90
2022-12-03T15:38:16.496Z,21.80
2022-12-03T15:41:24.671Z,23.70
2022-12-03T15:44:23.867Z,21.90
2022-12-03T15:47:22.149Z,22.30
2022-12-03T15:50:19.656Z,21.20
2022-12-03T15:53:17.600Z,20.30
2022-12-03T15:56:15.435Z,22.00
2022-12-03T15:59:16.317Z,24.50
2022-12-03T16:02:13.969Z,21.30
2022-12-03T16:05:11.511Z,21.50
2022-12-03T16:08:09.191Z,21.20
2022-12-03T16:11:07.123Z,20.30
2022-12-03T16:14:04.672Z,21.00
2022-12-03T16:17:02.325Z,23.00
2022-12-03T16:20:00.265Z,21.40
2022-12-03T16:22:58.291Z,21.40
2022-12-03T16:25:56.718Z,19.70
2022-12-03T16:28:54.787Z,20.80
2022-12-03T16:31:52.300Z,21.50
2022-12-03T16:34:50.316Z,19.90
2022-12-03T16:37:48.298Z,18.80
2022-12-03T16:40:45.846Z,21.10
2022-12-03T16:43:46.221Z,19.00
2022-12-03T16:46:46.138Z,19.00
2022-12-03T16:49:44.378Z,18.70
2022-12-03T16:52:41.895Z,18.80
2022-12-03T16:55:39.444Z,19.20
2022-12-03T16:58:37.655Z,19.30
2022-12-03T17:01:36.166Z,18.80
2022-12-03T17:04:37.160Z,19.00
2022-12-03T17:07:34.940Z,20.20
2022-12-03T17:10:33.651Z,18.00
2022-12-03T17:13:31.201Z,17.20
2022-12-03T17:16:29.641Z,15.30
2022-12-03T17:19:27.604Z,18.60
2022-12-03T17:22:25.957Z,17.30
2022-12-03T17:25:23.948Z,19.80
2022-12-03T17:28:22.281Z,16.20
2022-12-03T17:31:20.309Z,18.30
2022-12-03T17:34:18.267Z,20.90
2022-12-03T17:37:15.951Z,19.50
2022-12-03T17:40:13.475Z,15.10
2022-12-03T17:43:12.047Z,19.80
2022-12-03T17:46:10.420Z,19.10
2022-12-03T17:49:07.911Z,19.30
2022-12-03T17:52:05.370Z,18.60
2022-12-03T17:55:11.234Z,20.10
2022-12-03T17:58:10.600Z,15.50
2022-12-03T18:01:10.566Z,21.10
2022-12-03T18:04:09.783Z,18.80
2022-12-03T18:07:07.690Z,19.60
2022-12-03T18:10:05.222Z,20.70
2022-12-03T18:13:03.099Z,20.70
2022-12-03T18:16:00.745Z,20.60
2022-12-03T18:19:04.662Z,20.40
2022-12-03T18:22:05.426Z,18.00
2022-12-03T18:25:03.452Z,19.20
2022-12-03T18:28:00.937Z,21.10
2022-12-03T18:30:59.039Z,18.20
2022-12-03T18:33:57.273Z,18.70
2022-12-03T18:36:54.926Z,20.60
2022-12-03T18:39:54.478Z,20.10
2022-12-03T18:42:54.656Z,20.40
2022-12-03T18:45:53.142Z,19.80
2022-12-03T18:48:50.683Z,20.50
2022-12-03T18:51:48.636Z,20.10
2022-12-03T18:54:47.347Z,21.50
2022-12-03T18:57:45.090Z,19.50
2022-12-03T19:00:42.824Z,18.80
2022-12-03T19:03:40.856Z,17.20
2022-12-03T19:06:38.824Z,20.20
2022-12-03T19:09:38.435Z,15.50
2022-12-03T19:12:40.158Z,19.70
2022-12-03T19:15:38.597Z,20.20
2022-12-03T19:18:37.260Z,19.90
2022-12-03T19:21:36.606Z,18.50
2022-12-03T19:24:35.203Z,20.40
2022-12-03T19:27:33.215Z,19.40
2022-12-03T19:30:31.656Z,21.60
2022-12-03T19:33:30.166Z,18.50
2022-12-03T19:36:28.253Z,18.30
2022-12-03T19:39:28.002Z,18.00
2022-12-03T19:42:29.940Z,19.40
2022-12-03T19:48:27.313Z,16.00
2022-12-03T19:51:34.546Z,17.80
2022-12-03T19:54:34.787Z,16.80
2022-12-03T19:57:33.262Z,16.10
2022-12-03T20:00:31.979Z,17.10
2022-12-03T20:03:30.654Z,16.20
2022-12-03T20:06:29.257Z,17.60
2022-12-03T20:09:27.940Z,16.40
2022-12-03T20:12:26.436Z,17.30
2022-12-03T20:15:24.869Z,17.10
2022-12-03T20:18:23.068Z,16.80
2022-12-03T20:21:21.736Z,16.30
2022-12-03T20:24:20.464Z,16.30
2022-12-03T20:27:22.793Z,16.60
2022-12-03T20:30:21.727Z,15.80
2022-12-03T20:33:20.253Z,17.30
2022-12-03T20:36:18.323Z,18.80
2022-12-03T20:39:15.886Z,19.10
2022-12-03T20:42:17.003Z,19.30
2022-12-03T20:45:15.425Z,16.50
2022-12-03T20:48:14.002Z,19.90
2022-12-03T20:51:12.094Z,18.20
2022-12-03T20:54:10.584Z,18.70
2022-12-03T20:57:09.021Z,19.30
2022-12-03T21:00:07.348Z,18.00
2022-12-03T21:03:06.002Z,20.40
2022-12-03T21:06:03.791Z,21.10
2022-12-03T21:09:02.105Z,19.80
2022-12-03T21:12:00.968Z,19.30
2022-12-03T21:14:59.831Z,20.10
2022-12-03T21:17:57.603Z,20.80
2022-12-03T21:20:55.740Z,20.00
2022-12-03T21:23:53.661Z,19.00
2022-12-03T21:26:52.293Z,19.90
2022-12-03T21:29:50.212Z,17.90
2022-12-03T21:32:48.647Z,20.20
2022-12-03T21:35:47.228Z,18.60
2022-12-03T21:38:45.155Z,19.90
2022-12-03T21:42:18.863Z,20.60
2022-12-03T21:45:01.229Z,19.50
2022-12-03T21:47:58.767Z,20.30
2022-12-03T21:50:56.347Z,20.20
2022-12-03T21:53:53.880Z,22.10
2022-12-03T21:56:51.812Z,19.80
2022-12-03T21:59:49.939Z,21.70
2022-12-03T22:02:47.436Z,18.80
2022-12-03T22:05:45.708Z,20.60
2022-12-03T22:08:43.202Z,19.10
2022-12-03T22:11:40.900Z,21.40
2022-12-03T22:14:38.588Z,20.90
2022-12-03T22:17:36.041Z,22.10
2022-12-03T22:20:33.480Z,19.70
2022-12-03T22:23:30.933Z,21.10
2022-12-03T22:26:28.397Z,19.50
2022-12-03T22:29:25.833Z,20.50
2022-12-03T22:32:23.904Z,20.70
2022-12-03T22:35:21.370Z,20.30
2022-12-03T22:38:18.839Z,20.30
2022-12-03T22:41:16.333Z,20.60
2022-12-03T22:44:13.795Z,20.40
2022-12-03T22:47:11.248Z,20.30
2022-12-03T22:50:08.873Z,17.00
2022-12-03T22:53:06.336Z,20.50
2022-12-03T22:56:03.801Z,21.60
2022-12-03T22:59:01.258Z,21.00
2022-12-03T23:01:58.717Z,20.20
2022-12-03T23:04:56.180Z,18.30
2022-12-03T23:07:53.673Z,19.50
2022-12-03T23:10:51.177Z,20.20
2022-12-03T23:13:48.640Z,18.20
2022-12-03T23:16:46.094Z,19.40
2022-12-03T23:19:43.533Z,17.80
2022-12-03T23:22:41.005Z,19.20
2022-12-03T23:25:38.523Z,18.60
2022-12-03T23:28:35.958Z,18.60
2022-12-03T23:31:33.741Z,19.30
2022-12-03T23:34:31.407Z,20.20
2022-12-03T23:37:28.963Z,19.00
2022-12-03T23:40:26.438Z,21.30
2022-12-03T23:43:23.886Z,19.70
2022-12-03T23:46:21.424Z,19.40
2022-12-03T23:49:18.945Z,21.00
2022-12-03T23:52:16.432Z,21.20
2022-12-03T23:55:13.880Z,20.40
2022-12-03T23:58:11.354Z,19.30
